DAUO/ELU METAR and TAF weather

Enter ICAO airport designator
Station Type Date Time Source
DAUO METAR 2018/01/17 06:00 UTC NOAA

DAUO 170600Z 22004KT CAVOK 05/M00 Q1023


Station Type Date Time Source
DAUO Decoded METAR 2018/01/17 06:00 UTC NOAA

El Oued, Algeria (DAUO) 33-30N 006-07E 63M
Jan 17, 2018 - 01:00 AM EST / 2018.01.17 0600 UTC
Wind: from the SW (220 degrees) at 5 MPH (4 KT):0
Visibility: greater than 7 mile(s):0
Temperature: 41 F (5 C)
Dew Point: 32 F (0 C)
Relative Humidity: 70%
Pressure (altimeter): 30.21 in. Hg (1023 hPa)
ob: DAUO 170600Z 22004KT CAVOK 05/M00 Q1023
cycle: 6

Station Type Date Time Source
DAUO TAF 2017/11/09 18:03 UTC NOAA

TAF DAUO 091700Z 0918/1009 28010KT 9999 SCT033 SCT100 PROB30
TEMPO 0918/0924 28015G25KT 5000 -TSRA FEW036CB


Example: see airport list